Terminal Aerodrome Forecast
Issued by NWS Louisville, KY

Home | Current Version | Previous Version | Text Only | Print | Product List | Glossary On
Versions: 1 2 3 4 5 6 7 8 9 10 11 12 13 14 15 16 17 18
000
FTUS43 KLMK 231700
TAFLEX
TAF
KLEX 231739Z 2318/2418 14013KT 6SM -SHRA BKN040
     FM232000 14015G22KT 5SM -SHRA BKN025
     FM232300 15017KT 4SM -SHRA BKN018
     FM240400 19015G25KT P6SM VCSH OVC025
     FM241300 22022G34KT P6SM VCSH BKN025=

USA.gov is the U.S. government's official web portal to all federal, state and local government web resources and services.